sensor_id;sensor_type;location;lat;lon;timestamp;P1;durP1;ratioP1;P2;durP2;ratioP2
49296;SDS011;35163;48.878;18.040;2024-02-26T00:00:31;15.60;;;7.40;;
49296;SDS011;35163;48.878;18.040;2024-02-26T00:02:58;15.02;;;6.85;;
49296;SDS011;35163;48.878;18.040;2024-02-26T00:05:25;11.55;;;6.57;;
49296;SDS011;35163;48.878;18.040;2024-02-26T00:07:51;14.48;;;6.65;;
49296;SDS011;35163;48.878;18.040;2024-02-26T00:10:18;12.57;;;7.10;;
49296;SDS011;35163;48.878;18.040;2024-02-26T00:12:45;13.02;;;6.25;;
49296;SDS011;35163;48.878;18.040;2024-02-26T00:15:11;13.82;;;6.68;;
49296;SDS011;35163;48.878;18.040;2024-02-26T00:17:38;12.07;;;6.18;;
49296;SDS011;35163;48.878;18.040;2024-02-26T00:20:05;14.95;;;6.75;;
49296;SDS011;35163;48.878;18.040;2024-02-26T00:22:35;13.57;;;6.28;;
49296;SDS011;35163;48.878;18.040;2024-02-26T00:25:03;14.90;;;6.55;;
49296;SDS011;35163;48.878;18.040;2024-02-26T00:27:30;12.20;;;6.50;;
49296;SDS011;35163;48.878;18.040;2024-02-26T00:29:57;11.55;;;6.25;;
49296;SDS011;35163;48.878;18.040;2024-02-26T00:32:23;9.68;;;5.65;;
49296;SDS011;35163;48.878;18.040;2024-02-26T00:34:50;11.02;;;6.00;;
49296;SDS011;35163;48.878;18.040;2024-02-26T00:37:17;12.52;;;5.82;;
49296;SDS011;35163;48.878;18.040;2024-02-26T00:39:44;13.75;;;5.78;;
49296;SDS011;35163;48.878;18.040;2024-02-26T00:42:12;12.40;;;6.28;;
49296;SDS011;35163;48.878;18.040;2024-02-26T00:44:39;14.60;;;6.85;;
49296;SDS011;35163;48.878;18.040;2024-02-26T00:47:06;12.23;;;6.28;;
49296;SDS011;35163;48.878;18.040;2024-02-26T00:49:32;10.02;;;5.45;;
49296;SDS011;35163;48.878;18.040;2024-02-26T00:51:59;13.05;;;5.70;;
49296;SDS011;35163;48.878;18.040;2024-02-26T00:54:26;12.23;;;5.43;;
49296;SDS011;35163;48.878;18.040;2024-02-26T00:56:52;12.48;;;5.78;;
49296;SDS011;35163;48.878;18.040;2024-02-26T00:59:19;11.35;;;5.78;;
49296;SDS011;35163;48.878;18.040;2024-02-26T01:01:46;11.52;;;6.30;;
49296;SDS011;35163;48.878;18.040;2024-02-26T01:04:12;11.13;;;6.05;;
49296;SDS011;35163;48.878;18.040;2024-02-26T01:06:39;12.52;;;6.63;;
49296;SDS011;35163;48.878;18.040;2024-02-26T01:09:06;10.63;;;5.85;;
49296;SDS011;35163;48.878;18.040;2024-02-26T01:11:32;10.77;;;5.85;;
49296;SDS011;35163;48.878;18.040;2024-02-26T01:13:59;11.55;;;6.32;;
49296;SDS011;35163;48.878;18.040;2024-02-26T01:16:26;11.93;;;6.10;;
49296;SDS011;35163;48.878;18.040;2024-02-26T01:18:55;12.90;;;6.30;;
49296;SDS011;35163;48.878;18.040;2024-02-26T01:21:22;11.65;;;6.00;;
49296;SDS011;35163;48.878;18.040;2024-02-26T01:23:48;12.13;;;6.95;;
49296;SDS011;35163;48.878;18.040;2024-02-26T01:26:15;14.35;;;6.68;;
49296;SDS011;35163;48.878;18.040;2024-02-26T01:28:42;13.05;;;6.90;;
49296;SDS011;35163;48.878;18.040;2024-02-26T01:31:09;12.95;;;6.70;;
49296;SDS011;35163;48.878;18.040;2024-02-26T01:33:36;14.73;;;6.78;;
49296;SDS011;35163;48.878;18.040;2024-02-26T01:36:03;10.23;;;5.68;;
49296;SDS011;35163;48.878;18.040;2024-02-26T01:38:30;11.32;;;6.32;;
49296;SDS011;35163;48.878;18.040;2024-02-26T01:40:56;11.13;;;5.75;;
49296;SDS011;35163;48.878;18.040;2024-02-26T01:43:23;11.75;;;6.63;;
49296;SDS011;35163;48.878;18.040;2024-02-26T01:45:50;11.38;;;6.28;;
49296;SDS011;35163;48.878;18.040;2024-02-26T01:48:16;17.73;;;7.55;;
49296;SDS011;35163;48.878;18.040;2024-02-26T01:50:43;13.20;;;7.32;;
49296;SDS011;35163;48.878;18.040;2024-02-26T01:53:10;12.15;;;6.50;;
49296;SDS011;35163;48.878;18.040;2024-02-26T01:55:37;12.90;;;7.25;;
49296;SDS011;35163;48.878;18.040;2024-02-26T01:58:04;13.35;;;8.05;;
49296;SDS011;35163;48.878;18.040;2024-02-26T02:00:31;14.70;;;7.10;;
49296;SDS011;35163;48.878;18.040;2024-02-26T02:02:59;14.27;;;7.57;;
49296;SDS011;35163;48.878;18.040;2024-02-26T02:05:26;16.75;;;7.90;;
49296;SDS011;35163;48.878;18.040;2024-02-26T02:07:53;14.75;;;7.25;;
49296;SDS011;35163;48.878;18.040;2024-02-26T02:10:20;12.98;;;7.43;;
49296;SDS011;35163;48.878;18.040;2024-02-26T02:12:52;13.85;;;7.20;;
49296;SDS011;35163;48.878;18.040;2024-02-26T02:15:19;12.63;;;7.28;;
49296;SDS011;35163;48.878;18.040;2024-02-26T02:17:46;12.57;;;6.38;;
49296;SDS011;35163;48.878;18.040;2024-02-26T02:20:17;13.20;;;7.07;;
49296;SDS011;35163;48.878;18.040;2024-02-26T02:22:45;12.18;;;7.22;;
49296;SDS011;35163;48.878;18.040;2024-02-26T02:25:12;13.60;;;7.00;;
49296;SDS011;35163;48.878;18.040;2024-02-26T02:27:39;16.00;;;7.13;;
49296;SDS011;35163;48.878;18.040;2024-02-26T02:30:06;13.18;;;7.00;;
49296;SDS011;35163;48.878;18.040;2024-02-26T02:32:35;14.15;;;7.82;;
49296;SDS011;35163;48.878;18.040;2024-02-26T02:35:05;12.32;;;7.20;;
49296;SDS011;35163;48.878;18.040;2024-02-26T02:37:32;11.93;;;7.45;;
49296;SDS011;35163;48.878;18.040;2024-02-26T02:39:59;18.00;;;8.40;;
49296;SDS011;35163;48.878;18.040;2024-02-26T02:42:26;16.67;;;8.57;;
49296;SDS011;35163;48.878;18.040;2024-02-26T02:44:53;14.25;;;7.80;;
49296;SDS011;35163;48.878;18.040;2024-02-26T02:47:19;13.25;;;7.30;;
49296;SDS011;35163;48.878;18.040;2024-02-26T02:49:46;13.80;;;6.43;;
49296;SDS011;35163;48.878;18.040;2024-02-26T02:52:12;14.90;;;8.15;;
49296;SDS011;35163;48.878;18.040;2024-02-26T02:54:39;15.55;;;7.78;;
49296;SDS011;35163;48.878;18.040;2024-02-26T02:57:08;15.82;;;7.65;;
49296;SDS011;35163;48.878;18.040;2024-02-26T02:59:35;16.38;;;7.53;;
49296;SDS011;35163;48.878;18.040;2024-02-26T03:02:02;12.23;;;7.40;;
49296;SDS011;35163;48.878;18.040;2024-02-26T03:04:29;15.70;;;7.85;;
49296;SDS011;35163;48.878;18.040;2024-02-26T03:06:55;14.90;;;8.27;;
49296;SDS011;35163;48.878;18.040;2024-02-26T03:09:22;11.63;;;7.13;;
49296;SDS011;35163;48.878;18.040;2024-02-26T03:11:50;13.70;;;7.32;;
49296;SDS011;35163;48.878;18.040;2024-02-26T03:14:16;13.45;;;7.78;;
49296;SDS011;35163;48.878;18.040;2024-02-26T03:16:43;14.30;;;8.38;;
49296;SDS011;35163;48.878;18.040;2024-02-26T03:19:09;12.55;;;6.85;;
49296;SDS011;35163;48.878;18.040;2024-02-26T03:21:36;13.95;;;7.70;;
49296;SDS011;35163;48.878;18.040;2024-02-26T03:24:03;15.50;;;7.93;;
49296;SDS011;35163;48.878;18.040;2024-02-26T03:26:30;13.98;;;7.72;;
49296;SDS011;35163;48.878;18.040;2024-02-26T03:28:57;13.63;;;7.35;;
49296;SDS011;35163;48.878;18.040;2024-02-26T03:31:24;15.18;;;7.55;;
49296;SDS011;35163;48.878;18.040;2024-02-26T03:33:50;16.42;;;7.50;;
49296;SDS011;35163;48.878;18.040;2024-02-26T03:36:17;14.13;;;7.65;;
49296;SDS011;35163;48.878;18.040;2024-02-26T03:38:44;11.45;;;6.65;;
49296;SDS011;35163;48.878;18.040;2024-02-26T03:41:10;17.60;;;7.72;;
49296;SDS011;35163;48.878;18.040;2024-02-26T03:43:37;14.00;;;6.88;;
49296;SDS011;35163;48.878;18.040;2024-02-26T03:46:04;11.65;;;6.28;;
49296;SDS011;35163;48.878;18.040;2024-02-26T03:48:33;13.25;;;6.72;;
49296;SDS011;35163;48.878;18.040;2024-02-26T03:51:00;14.13;;;6.50;;
49296;SDS011;35163;48.878;18.040;2024-02-26T03:53:27;11.65;;;6.82;;
49296;SDS011;35163;48.878;18.040;2024-02-26T03:55:54;12.80;;;6.57;;
49296;SDS011;35163;48.878;18.040;2024-02-26T03:58:21;13.68;;;6.90;;
49296;SDS011;35163;48.878;18.040;2024-02-26T04:00:48;13.57;;;7.07;;
49296;SDS011;35163;48.878;18.040;2024-02-26T04:03:14;10.95;;;5.95;;
49296;SDS011;35163;48.878;18.040;2024-02-26T04:05:41;12.57;;;6.50;;
49296;SDS011;35163;48.878;18.040;2024-02-26T04:08:08;12.43;;;6.82;;
49296;SDS011;35163;48.878;18.040;2024-02-26T04:10:34;11.90;;;6.88;;
49296;SDS011;35163;48.878;18.040;2024-02-26T04:13:01;13.13;;;6.78;;
49296;SDS011;35163;48.878;18.040;2024-02-26T04:15:30;12.40;;;6.75;;
49296;SDS011;35163;48.878;18.040;2024-02-26T04:17:56;15.13;;;6.90;;
49296;SDS011;35163;48.878;18.040;2024-02-26T04:20:23;16.92;;;7.50;;
49296;SDS011;35163;48.878;18.040;2024-02-26T04:22:50;15.95;;;7.65;;
49296;SDS011;35163;48.878;18.040;2024-02-26T04:25:16;13.30;;;6.70;;
49296;SDS011;35163;48.878;18.040;2024-02-26T04:27:43;13.43;;;6.90;;
49296;SDS011;35163;48.878;18.040;2024-02-26T04:30:10;13.13;;;6.68;;
49296;SDS011;35163;48.878;18.040;2024-02-26T04:32:37;15.60;;;7.30;;
49296;SDS011;35163;48.878;18.040;2024-02-26T04:35:04;12.43;;;7.20;;
49296;SDS011;35163;48.878;18.040;2024-02-26T04:37:31;11.73;;;6.78;;
49296;SDS011;35163;48.878;18.040;2024-02-26T04:40:00;13.23;;;7.57;;
49296;SDS011;35163;48.878;18.040;2024-02-26T04:42:27;16.90;;;7.05;;
49296;SDS011;35163;48.878;18.040;2024-02-26T04:44:54;15.00;;;7.18;;
49296;SDS011;35163;48.878;18.040;2024-02-26T04:47:21;16.33;;;7.68;;
49296;SDS011;35163;48.878;18.040;2024-02-26T04:49:49;13.60;;;6.95;;
49296;SDS011;35163;48.878;18.040;2024-02-26T04:52:16;14.32;;;6.65;;
49296;SDS011;35163;48.878;18.040;2024-02-26T04:54:43;13.15;;;6.95;;
49296;SDS011;35163;48.878;18.040;2024-02-26T04:57:10;12.25;;;6.75;;
49296;SDS011;35163;48.878;18.040;2024-02-26T04:59:36;17.38;;;7.38;;
49296;SDS011;35163;48.878;18.040;2024-02-26T05:02:03;13.32;;;7.05;;
49296;SDS011;35163;48.878;18.040;2024-02-26T05:04:30;11.00;;;6.32;;
49296;SDS011;35163;48.878;18.040;2024-02-26T05:06:57;11.75;;;6.38;;
49296;SDS011;35163;48.878;18.040;2024-02-26T05:09:24;14.48;;;6.20;;
49296;SDS011;35163;48.878;18.040;2024-02-26T05:11:50;11.50;;;5.82;;
49296;SDS011;35163;48.878;18.040;2024-02-26T05:14:17;14.43;;;6.20;;
49296;SDS011;35163;48.878;18.040;2024-02-26T05:16:44;11.48;;;6.65;;
49296;SDS011;35163;48.878;18.040;2024-02-26T05:19:11;12.02;;;6.57;;
49296;SDS011;35163;48.878;18.040;2024-02-26T05:21:37;14.32;;;6.70;;
49296;SDS011;35163;48.878;18.040;2024-02-26T05:24:04;13.18;;;6.10;;
49296;SDS011;35163;48.878;18.040;2024-02-26T05:26:31;12.45;;;6.20;;
49296;SDS011;35163;48.878;18.040;2024-02-26T05:28:57;21.33;;;6.50;;
49296;SDS011;35163;48.878;18.040;2024-02-26T05:31:26;12.82;;;7.43;;
49296;SDS011;35163;48.878;18.040;2024-02-26T05:33:53;12.93;;;6.57;;
49296;SDS011;35163;48.878;18.040;2024-02-26T05:36:20;11.07;;;6.05;;
49296;SDS011;35163;48.878;18.040;2024-02-26T05:38:49;12.52;;;6.60;;
49296;SDS011;35163;48.878;18.040;2024-02-26T05:41:16;12.45;;;6.40;;
49296;SDS011;35163;48.878;18.040;2024-02-26T05:43:46;11.13;;;6.15;;
49296;SDS011;35163;48.878;18.040;2024-02-26T05:46:13;13.80;;;6.22;;
49296;SDS011;35163;48.878;18.040;2024-02-26T05:48:39;12.20;;;6.38;;
49296;SDS011;35163;48.878;18.040;2024-02-26T05:51:06;15.65;;;6.75;;
49296;SDS011;35163;48.878;18.040;2024-02-26T05:53:33;12.10;;;6.75;;
49296;SDS011;35163;48.878;18.040;2024-02-26T05:56:00;10.82;;;5.70;;
49296;SDS011;35163;48.878;18.040;2024-02-26T05:58:26;17.42;;;7.18;;
49296;SDS011;35163;48.878;18.040;2024-02-26T06:00:53;14.18;;;7.93;;
49296;SDS011;35163;48.878;18.040;2024-02-26T06:03:20;12.40;;;6.68;;
49296;SDS011;35163;48.878;18.040;2024-02-26T06:05:46;11.70;;;6.25;;
49296;SDS011;35163;48.878;18.040;2024-02-26T06:08:13;12.70;;;5.78;;
49296;SDS011;35163;48.878;18.040;2024-02-26T06:10:40;13.88;;;6.65;;
49296;SDS011;35163;48.878;18.040;2024-02-26T06:13:07;12.13;;;6.13;;
49296;SDS011;35163;48.878;18.040;2024-02-26T06:15:33;14.57;;;6.53;;
49296;SDS011;35163;48.878;18.040;2024-02-26T06:18:00;12.30;;;6.55;;
49296;SDS011;35163;48.878;18.040;2024-02-26T06:20:27;10.00;;;5.55;;
49296;SDS011;35163;48.878;18.040;2024-02-26T06:22:54;13.05;;;6.05;;
49296;SDS011;35163;48.878;18.040;2024-02-26T06:25:20;10.65;;;5.95;;
49296;SDS011;35163;48.878;18.040;2024-02-26T06:27:47;10.93;;;5.97;;
49296;SDS011;35163;48.878;18.040;2024-02-26T06:30:13;12.98;;;5.35;;
49296;SDS011;35163;48.878;18.040;2024-02-26T06:32:40;12.77;;;6.13;;
49296;SDS011;35163;48.878;18.040;2024-02-26T06:35:07;12.52;;;5.90;;
49296;SDS011;35163;48.878;18.040;2024-02-26T06:37:36;12.10;;;5.88;;
49296;SDS011;35163;48.878;18.040;2024-02-26T06:40:03;17.10;;;6.18;;
49296;SDS011;35163;48.878;18.040;2024-02-26T06:42:30;11.52;;;6.30;;
49296;SDS011;35163;48.878;18.040;2024-02-26T06:44:57;11.80;;;6.10;;
49296;SDS011;35163;48.878;18.040;2024-02-26T06:47:24;10.65;;;5.90;;
49296;SDS011;35163;48.878;18.040;2024-02-26T06:49:52;12.93;;;6.10;;
49296;SDS011;35163;48.878;18.040;2024-02-26T06:52:19;11.63;;;5.93;;
49296;SDS011;35163;48.878;18.040;2024-02-26T06:54:45;15.52;;;6.13;;
49296;SDS011;35163;48.878;18.040;2024-02-26T06:57:14;11.70;;;5.78;;
49296;SDS011;35163;48.878;18.040;2024-02-26T06:59:41;15.82;;;6.93;;
49296;SDS011;35163;48.878;18.040;2024-02-26T07:02:15;14.07;;;6.35;;
49296;SDS011;35163;48.878;18.040;2024-02-26T07:04:42;13.82;;;5.95;;
49296;SDS011;35163;48.878;18.040;2024-02-26T07:07:09;11.68;;;6.22;;
49296;SDS011;35163;48.878;18.040;2024-02-26T07:09:37;12.80;;;6.13;;
49296;SDS011;35163;48.878;18.040;2024-02-26T07:12:04;13.57;;;6.60;;
49296;SDS011;35163;48.878;18.040;2024-02-26T07:14:31;15.93;;;7.47;;
49296;SDS011;35163;48.878;18.040;2024-02-26T07:16:58;14.05;;;6.65;;
49296;SDS011;35163;48.878;18.040;2024-02-26T07:19:25;13.73;;;6.10;;
49296;SDS011;35163;48.878;18.040;2024-02-26T07:21:52;11.82;;;6.03;;
49296;SDS011;35163;48.878;18.040;2024-02-26T07:24:18;10.88;;;5.25;;
49296;SDS011;35163;48.878;18.040;2024-02-26T07:26:45;11.77;;;6.63;;
49296;SDS011;35163;48.878;18.040;2024-02-26T07:29:12;12.07;;;5.82;;
49296;SDS011;35163;48.878;18.040;2024-02-26T07:31:38;10.77;;;5.55;;
49296;SDS011;35163;48.878;18.040;2024-02-26T07:34:05;13.68;;;6.85;;
49296;SDS011;35163;48.878;18.040;2024-02-26T07:36:32;12.60;;;6.50;;
49296;SDS011;35163;48.878;18.040;2024-02-26T07:38:58;11.68;;;6.10;;
49296;SDS011;35163;48.878;18.040;2024-02-26T07:41:25;14.02;;;6.28;;
49296;SDS011;35163;48.878;18.040;2024-02-26T07:43:52;10.27;;;5.50;;
49296;SDS011;35163;48.878;18.040;2024-02-26T07:46:18;12.55;;;6.10;;
49296;SDS011;35163;48.878;18.040;2024-02-26T07:48:45;11.23;;;5.95;;
49296;SDS011;35163;48.878;18.040;2024-02-26T07:51:14;10.35;;;5.18;;
49296;SDS011;35163;48.878;18.040;2024-02-26T07:53:41;12.38;;;5.75;;
49296;SDS011;35163;48.878;18.040;2024-02-26T07:56:08;12.15;;;5.85;;
49296;SDS011;35163;48.878;18.040;2024-02-26T07:58:35;10.05;;;5.45;;
49296;SDS011;35163;48.878;18.040;2024-02-26T08:01:01;11.00;;;5.07;;
49296;SDS011;35163;48.878;18.040;2024-02-26T08:03:28;10.10;;;5.35;;
49296;SDS011;35163;48.878;18.040;2024-02-26T08:05:55;13.13;;;5.40;;
49296;SDS011;35163;48.878;18.040;2024-02-26T08:08:22;12.65;;;5.20;;
49296;SDS011;35163;48.878;18.040;2024-02-26T08:10:49;12.48;;;5.38;;
49296;SDS011;35163;48.878;18.040;2024-02-26T08:13:16;11.07;;;5.82;;
49296;SDS011;35163;48.878;18.040;2024-02-26T08:15:42;12.60;;;5.38;;
49296;SDS011;35163;48.878;18.040;2024-02-26T08:18:09;12.68;;;5.47;;
49296;SDS011;35163;48.878;18.040;2024-02-26T08:20:36;10.10;;;4.88;;
49296;SDS011;35163;48.878;18.040;2024-02-26T08:23:03;12.05;;;5.28;;
49296;SDS011;35163;48.878;18.040;2024-02-26T08:25:30;10.20;;;4.97;;
49296;SDS011;35163;48.878;18.040;2024-02-26T08:27:57;8.93;;;4.55;;
49296;SDS011;35163;48.878;18.040;2024-02-26T08:30:23;12.25;;;5.40;;
49296;SDS011;35163;48.878;18.040;2024-02-26T08:32:50;10.77;;;4.57;;
49296;SDS011;35163;48.878;18.040;2024-02-26T08:35:18;10.95;;;4.53;;
49296;SDS011;35163;48.878;18.040;2024-02-26T08:37:46;9.63;;;4.60;;
49296;SDS011;35163;48.878;18.040;2024-02-26T08:40:13;11.10;;;4.35;;
49296;SDS011;35163;48.878;18.040;2024-02-26T08:42:41;13.57;;;4.60;;
49296;SDS011;35163;48.878;18.040;2024-02-26T08:45:08;13.30;;;7.13;;
49296;SDS011;35163;48.878;18.040;2024-02-26T08:47:35;9.77;;;4.53;;
49296;SDS011;35163;48.878;18.040;2024-02-26T08:50:02;9.65;;;3.90;;
49296;SDS011;35163;48.878;18.040;2024-02-26T08:52:28;7.18;;;3.58;;
49296;SDS011;35163;48.878;18.040;2024-02-26T08:54:55;10.70;;;3.95;;
49296;SDS011;35163;48.878;18.040;2024-02-26T08:57:23;5.65;;;2.85;;
49296;SDS011;35163;48.878;18.040;2024-02-26T08:59:50;5.90;;;3.15;;
49296;SDS011;35163;48.878;18.040;2024-02-26T09:02:16;6.80;;;2.97;;
49296;SDS011;35163;48.878;18.040;2024-02-26T09:04:43;5.20;;;2.67;;
49296;SDS011;35163;48.878;18.040;2024-02-26T09:07:10;6.40;;;2.72;;
49296;SDS011;35163;48.878;18.040;2024-02-26T09:09:37;10.80;;;3.33;;
49296;SDS011;35163;48.878;18.040;2024-02-26T09:12:04;5.78;;;2.90;;
49296;SDS011;35163;48.878;18.040;2024-02-26T09:14:31;6.63;;;3.03;;
49296;SDS011;35163;48.878;18.040;2024-02-26T09:16:58;6.78;;;2.65;;
49296;SDS011;35163;48.878;18.040;2024-02-26T09:19:25;4.63;;;2.72;;
49296;SDS011;35163;48.878;18.040;2024-02-26T09:21:54;8.85;;;3.00;;
49296;SDS011;35163;48.878;18.040;2024-02-26T09:24:24;7.60;;;2.70;;
49296;SDS011;35163;48.878;18.040;2024-02-26T09:26:51;4.25;;;1.92;;
49296;SDS011;35163;48.878;18.040;2024-02-26T09:29:18;5.55;;;2.30;;
49296;SDS011;35163;48.878;18.040;2024-02-26T09:31:44;5.60;;;2.65;;
49296;SDS011;35163;48.878;18.040;2024-02-26T09:34:14;4.47;;;2.33;;
49296;SDS011;35163;48.878;18.040;2024-02-26T09:36:40;5.07;;;2.55;;
49296;SDS011;35163;48.878;18.040;2024-02-26T09:39:07;4.82;;;2.35;;
49296;SDS011;35163;48.878;18.040;2024-02-26T09:41:38;6.20;;;2.40;;
49296;SDS011;35163;48.878;18.040;2024-02-26T09:44:05;6.82;;;2.55;;
49296;SDS011;35163;48.878;18.040;2024-02-26T09:46:32;4.65;;;2.15;;
49296;SDS011;35163;48.878;18.040;2024-02-26T09:48:59;4.43;;;2.35;;
49296;SDS011;35163;48.878;18.040;2024-02-26T09:51:27;5.78;;;2.58;;
49296;SDS011;35163;48.878;18.040;2024-02-26T09:53:53;5.53;;;2.17;;
49296;SDS011;35163;48.878;18.040;2024-02-26T09:56:22;6.25;;;2.78;;
49296;SDS011;35163;48.878;18.040;2024-02-26T09:58:49;5.00;;;2.22;;
49296;SDS011;35163;48.878;18.040;2024-02-26T10:01:20;4.05;;;2.15;;
49296;SDS011;35163;48.878;18.040;2024-02-26T10:03:51;4.03;;;2.10;;
49296;SDS011;35163;48.878;18.040;2024-02-26T10:06:21;4.72;;;2.35;;
49296;SDS011;35163;48.878;18.040;2024-02-26T10:08:48;6.03;;;2.58;;
49296;SDS011;35163;48.878;18.040;2024-02-26T10:11:16;5.85;;;2.55;;
49296;SDS011;35163;48.878;18.040;2024-02-26T10:13:43;7.55;;;2.60;;
49296;SDS011;35163;48.878;18.040;2024-02-26T10:16:10;5.53;;;3.10;;
49296;SDS011;35163;48.878;18.040;2024-02-26T10:21:24;9.68;;;2.92;;
49296;SDS011;35163;48.878;18.040;2024-02-26T10:23:51;5.97;;;2.88;;
49296;SDS011;35163;48.878;18.040;2024-02-26T10:26:18;7.10;;;2.90;;
49296;SDS011;35163;48.878;18.040;2024-02-26T10:28:45;6.35;;;3.22;;
49296;SDS011;35163;48.878;18.040;2024-02-26T10:31:15;11.30;;;3.78;;
49296;SDS011;35163;48.878;18.040;2024-02-26T10:33:43;8.23;;;3.25;;
49296;SDS011;35163;48.878;18.040;2024-02-26T10:36:11;7.35;;;3.65;;
49296;SDS011;35163;48.878;18.040;2024-02-26T10:38:38;8.40;;;3.30;;
49296;SDS011;35163;48.878;18.040;2024-02-26T10:41:09;7.47;;;3.28;;
49296;SDS011;35163;48.878;18.040;2024-02-26T10:43:39;6.88;;;3.10;;
49296;SDS011;35163;48.878;18.040;2024-02-26T10:46:08;6.53;;;3.00;;
49296;SDS011;35163;48.878;18.040;2024-02-26T10:48:34;7.43;;;3.45;;
49296;SDS011;35163;48.878;18.040;2024-02-26T10:51:02;9.10;;;3.67;;
49296;SDS011;35163;48.878;18.040;2024-02-26T10:53:29;7.63;;;3.67;;
49296;SDS011;35163;48.878;18.040;2024-02-26T10:55:59;9.98;;;3.67;;
49296;SDS011;35163;48.878;18.040;2024-02-26T10:58:29;7.72;;;4.03;;
49296;SDS011;35163;48.878;18.040;2024-02-26T11:00:57;7.85;;;3.75;;
49296;SDS011;35163;48.878;18.040;2024-02-26T11:03:26;8.38;;;4.40;;
49296;SDS011;35163;48.878;18.040;2024-02-26T11:05:53;7.35;;;3.63;;
49296;SDS011;35163;48.878;18.040;2024-02-26T11:08:21;9.57;;;3.58;;
49296;SDS011;35163;48.878;18.040;2024-02-26T11:10:50;7.63;;;3.60;;
49296;SDS011;35163;48.878;18.040;2024-02-26T11:13:19;7.80;;;3.65;;
49296;SDS011;35163;48.878;18.040;2024-02-26T11:15:47;8.48;;;4.00;;
49296;SDS011;35163;48.878;18.040;2024-02-26T11:18:15;9.55;;;4.10;;
49296;SDS011;35163;48.878;18.040;2024-02-26T11:20:43;9.65;;;4.35;;
49296;SDS011;35163;48.878;18.040;2024-02-26T11:23:11;9.52;;;3.95;;
49296;SDS011;35163;48.878;18.040;2024-02-26T11:25:38;7.90;;;3.88;;
49296;SDS011;35163;48.878;18.040;2024-02-26T11:28:14;12.77;;;3.97;;
49296;SDS011;35163;48.878;18.040;2024-02-26T11:30:45;7.40;;;4.03;;
49296;SDS011;35163;48.878;18.040;2024-02-26T11:33:14;9.35;;;4.43;;
49296;SDS011;35163;48.878;18.040;2024-02-26T11:35:42;8.48;;;3.50;;
49296;SDS011;35163;48.878;18.040;2024-02-26T11:38:19;8.05;;;3.75;;
49296;SDS011;35163;48.878;18.040;2024-02-26T11:40:48;9.82;;;3.80;;
49296;SDS011;35163;48.878;18.040;2024-02-26T11:43:14;8.35;;;3.88;;
49296;SDS011;35163;48.878;18.040;2024-02-26T11:48:11;10.45;;;4.13;;
49296;SDS011;35163;48.878;18.040;2024-02-26T11:50:40;9.43;;;4.10;;
49296;SDS011;35163;48.878;18.040;2024-02-26T11:55:46;12.50;;;4.35;;
49296;SDS011;35163;48.878;18.040;2024-02-26T11:58:13;9.10;;;4.18;;
49296;SDS011;35163;48.878;18.040;2024-02-26T12:00:40;8.13;;;4.00;;
49296;SDS011;35163;48.878;18.040;2024-02-26T12:03:07;8.10;;;3.67;;
49296;SDS011;35163;48.878;18.040;2024-02-26T12:05:36;7.03;;;3.60;;
49296;SDS011;35163;48.878;18.040;2024-02-26T12:08:07;7.03;;;3.50;;
49296;SDS011;35163;48.878;18.040;2024-02-26T12:10:36;6.47;;;3.17;;
49296;SDS011;35163;48.878;18.040;2024-02-26T12:13:06;6.95;;;3.22;;
49296;SDS011;35163;48.878;18.040;2024-02-26T12:15:43;7.35;;;2.92;;
49296;SDS011;35163;48.878;18.040;2024-02-26T12:18:15;9.73;;;3.22;;
49296;SDS011;35163;48.878;18.040;2024-02-26T12:20:44;7.72;;;3.53;;
49296;SDS011;35163;48.878;18.040;2024-02-26T12:23:14;8.10;;;3.55;;
49296;SDS011;35163;48.878;18.040;2024-02-26T12:25:43;8.05;;;3.50;;
49296;SDS011;35163;48.878;18.040;2024-02-26T12:28:10;7.20;;;3.10;;
49296;SDS011;35163;48.878;18.040;2024-02-26T12:30:36;6.40;;;3.15;;
49296;SDS011;35163;48.878;18.040;2024-02-26T12:33:03;8.95;;;3.15;;
49296;SDS011;35163;48.878;18.040;2024-02-26T12:35:30;7.28;;;3.38;;
49296;SDS011;35163;48.878;18.040;2024-02-26T12:37:58;9.40;;;4.85;;
49296;SDS011;35163;48.878;18.040;2024-02-26T12:40:26;10.02;;;4.32;;
49296;SDS011;35163;48.878;18.040;2024-02-26T12:42:53;7.28;;;3.40;;
49296;SDS011;35163;48.878;18.040;2024-02-26T12:45:21;7.82;;;4.15;;
49296;SDS011;35163;48.878;18.040;2024-02-26T12:47:48;8.80;;;3.95;;
49296;SDS011;35163;48.878;18.040;2024-02-26T12:50:17;8.27;;;3.58;;
49296;SDS011;35163;48.878;18.040;2024-02-26T12:52:45;7.15;;;3.63;;
49296;SDS011;35163;48.878;18.040;2024-02-26T12:55:14;9.68;;;3.90;;
49296;SDS011;35163;48.878;18.040;2024-02-26T12:57:42;7.05;;;3.78;;
49296;SDS011;35163;48.878;18.040;2024-02-26T13:00:15;7.13;;;3.63;;
49296;SDS011;35163;48.878;18.040;2024-02-26T13:02:44;7.33;;;3.37;;
49296;SDS011;35163;48.878;18.040;2024-02-26T13:05:12;9.10;;;3.85;;
49296;SDS011;35163;48.878;18.040;2024-02-26T13:07:43;8.55;;;3.90;;
49296;SDS011;35163;48.878;18.040;2024-02-26T13:10:10;10.75;;;3.53;;
49296;SDS011;35163;48.878;18.040;2024-02-26T13:12:58;10.50;;;3.88;;
49296;SDS011;35163;48.878;18.040;2024-02-26T13:15:28;7.63;;;3.50;;
49296;SDS011;35163;48.878;18.040;2024-02-26T13:17:55;9.15;;;4.10;;
49296;SDS011;35163;48.878;18.040;2024-02-26T13:20:29;9.60;;;3.75;;
49296;SDS011;35163;48.878;18.040;2024-02-26T13:23:04;9.32;;;4.25;;
49296;SDS011;35163;48.878;18.040;2024-02-26T13:25:32;7.72;;;3.88;;
49296;SDS011;35163;48.878;18.040;2024-02-26T13:28:09;7.50;;;3.65;;
49296;SDS011;35163;48.878;18.040;2024-02-26T13:30:40;7.78;;;3.78;;
49296;SDS011;35163;48.878;18.040;2024-02-26T13:33:07;9.75;;;4.30;;
49296;SDS011;35163;48.878;18.040;2024-02-26T13:35:38;9.40;;;4.45;;
49296;SDS011;35163;48.878;18.040;2024-02-26T13:38:06;8.70;;;4.32;;
49296;SDS011;35163;48.878;18.040;2024-02-26T13:40:33;11.77;;;4.57;;
49296;SDS011;35163;48.878;18.040;2024-02-26T13:43:00;8.90;;;4.47;;
49296;SDS011;35163;48.878;18.040;2024-02-26T13:45:27;11.15;;;5.25;;
49296;SDS011;35163;48.878;18.040;2024-02-26T13:48:01;10.60;;;5.80;;
49296;SDS011;35163;48.878;18.040;2024-02-26T13:50:29;10.80;;;5.90;;
49296;SDS011;35163;48.878;18.040;2024-02-26T13:52:56;12.52;;;6.40;;
49296;SDS011;35163;48.878;18.040;2024-02-26T13:55:27;13.05;;;6.47;;
49296;SDS011;35163;48.878;18.040;2024-02-26T13:57:55;11.23;;;6.30;;
49296;SDS011;35163;48.878;18.040;2024-02-26T14:00:26;11.80;;;6.63;;
49296;SDS011;35163;48.878;18.040;2024-02-26T14:02:54;13.15;;;7.28;;
49296;SDS011;35163;48.878;18.040;2024-02-26T14:05:20;13.55;;;7.55;;
49296;SDS011;35163;48.878;18.040;2024-02-26T14:07:47;13.20;;;7.72;;
49296;SDS011;35163;48.878;18.040;2024-02-26T14:10:18;13.55;;;7.22;;
49296;SDS011;35163;48.878;18.040;2024-02-26T14:12:45;14.88;;;7.47;;
49296;SDS011;35163;48.878;18.040;2024-02-26T14:15:12;12.55;;;6.70;;
49296;SDS011;35163;48.878;18.040;2024-02-26T14:17:39;13.30;;;7.35;;
49296;SDS011;35163;48.878;18.040;2024-02-26T14:20:05;12.85;;;7.40;;
49296;SDS011;35163;48.878;18.040;2024-02-26T14:22:34;14.88;;;8.27;;
49296;SDS011;35163;48.878;18.040;2024-02-26T14:25:00;14.68;;;7.20;;
49296;SDS011;35163;48.878;18.040;2024-02-26T14:27:27;17.27;;;7.82;;
49296;SDS011;35163;48.878;18.040;2024-02-26T14:29:54;13.18;;;7.78;;
49296;SDS011;35163;48.878;18.040;2024-02-26T14:32:21;18.73;;;9.82;;
49296;SDS011;35163;48.878;18.040;2024-02-26T14:34:48;15.88;;;8.38;;